sensor_id;sensor_type;location;lat;lon;timestamp;temperature;humidity
16032;DHT22;8120;48.308;8.914;2022-09-11T00:01:09;12.20;97.90
16032;DHT22;8120;48.308;8.914;2022-09-11T00:03:39;12.20;97.90
16032;DHT22;8120;48.308;8.914;2022-09-11T00:06:10;12.20;97.60
16032;DHT22;8120;48.308;8.914;2022-09-11T00:08:39;12.30;96.30
16032;DHT22;8120;48.308;8.914;2022-09-11T00:11:09;12.30;95.90
16032;DHT22;8120;48.308;8.914;2022-09-11T00:13:39;12.30;96.60
16032;DHT22;8120;48.308;8.914;2022-09-11T00:16:18;12.30;96.10
16032;DHT22;8120;48.308;8.914;2022-09-11T00:18:47;12.30;96.90
16032;DHT22;8120;48.308;8.914;2022-09-11T00:21:16;12.20;97.20
16032;DHT22;8120;48.308;8.914;2022-09-11T00:23:44;12.20;96.20
16032;DHT22;8120;48.308;8.914;2022-09-11T00:26:15;12.20;96.30
16032;DHT22;8120;48.308;8.914;2022-09-11T00:28:43;12.20;96.10
16032;DHT22;8120;48.308;8.914;2022-09-11T00:31:13;12.20;95.10
16032;DHT22;8120;48.308;8.914;2022-09-11T00:33:43;12.30;94.70
16032;DHT22;8120;48.308;8.914;2022-09-11T00:36:16;12.20;94.90
16032;DHT22;8120;48.308;8.914;2022-09-11T00:38:45;12.20;95.60
16032;DHT22;8120;48.308;8.914;2022-09-11T00:41:15;12.20;95.60
16032;DHT22;8120;48.308;8.914;2022-09-11T00:43:55;12.10;95.20
16032;DHT22;8120;48.308;8.914;2022-09-11T00:46:31;12.10;95.50
16032;DHT22;8120;48.308;8.914;2022-09-11T00:49:08;12.10;94.20
16032;DHT22;8120;48.308;8.914;2022-09-11T00:51:37;12.10;94.00
16032;DHT22;8120;48.308;8.914;2022-09-11T00:54:09;12.10;94.50
16032;DHT22;8120;48.308;8.914;2022-09-11T00:56:40;12.10;94.70
16032;DHT22;8120;48.308;8.914;2022-09-11T00:59:10;12.10;94.30
16032;DHT22;8120;48.308;8.914;2022-09-11T01:01:39;12.10;94.30
16032;DHT22;8120;48.308;8.914;2022-09-11T01:04:09;12.10;94.20
16032;DHT22;8120;48.308;8.914;2022-09-11T01:06:37;12.20;94.60
16032;DHT22;8120;48.308;8.914;2022-09-11T01:09:06;12.10;94.80
16032;DHT22;8120;48.308;8.914;2022-09-11T01:11:42;12.10;95.30
16032;DHT22;8120;48.308;8.914;2022-09-11T01:14:26;12.10;94.30
16032;DHT22;8120;48.308;8.914;2022-09-11T01:17:08;12.20;93.30
16032;DHT22;8120;48.308;8.914;2022-09-11T01:19:51;12.20;93.80
16032;DHT22;8120;48.308;8.914;2022-09-11T01:22:44;12.20;92.80
16032;DHT22;8120;48.308;8.914;2022-09-11T01:25:23;12.20;92.30
16032;DHT22;8120;48.308;8.914;2022-09-11T01:27:56;12.10;93.10
16032;DHT22;8120;48.308;8.914;2022-09-11T01:30:31;12.20;92.60
16032;DHT22;8120;48.308;8.914;2022-09-11T01:33:13;12.20;92.50
16032;DHT22;8120;48.308;8.914;2022-09-11T01:35:50;12.20;92.40
16032;DHT22;8120;48.308;8.914;2022-09-11T01:38:24;12.10;92.20
16032;DHT22;8120;48.308;8.914;2022-09-11T01:40:56;12.10;92.20
16032;DHT22;8120;48.308;8.914;2022-09-11T01:43:29;12.00;92.40
16032;DHT22;8120;48.308;8.914;2022-09-11T01:46:01;12.00;92.80
16032;DHT22;8120;48.308;8.914;2022-09-11T01:48:34;12.00;92.50
16032;DHT22;8120;48.308;8.914;2022-09-11T01:51:07;12.10;90.50
16032;DHT22;8120;48.308;8.914;2022-09-11T01:53:38;12.10;89.90
16032;DHT22;8120;48.308;8.914;2022-09-11T01:56:14;12.20;89.70
16032;DHT22;8120;48.308;8.914;2022-09-11T01:58:46;12.20;89.50
16032;DHT22;8120;48.308;8.914;2022-09-11T02:01:18;12.20;89.70
16032;DHT22;8120;48.308;8.914;2022-09-11T02:03:50;12.20;89.80
16032;DHT22;8120;48.308;8.914;2022-09-11T02:06:23;12.20;89.80
16032;DHT22;8120;48.308;8.914;2022-09-11T02:08:56;12.20;89.70
16032;DHT22;8120;48.308;8.914;2022-09-11T02:11:25;12.20;90.20
16032;DHT22;8120;48.308;8.914;2022-09-11T02:14:02;12.30;90.60
16032;DHT22;8120;48.308;8.914;2022-09-11T02:16:38;12.30;90.50
16032;DHT22;8120;48.308;8.914;2022-09-11T02:19:12;12.30;89.40
16032;DHT22;8120;48.308;8.914;2022-09-11T02:21:41;12.40;89.10
16032;DHT22;8120;48.308;8.914;2022-09-11T02:24:10;12.40;89.50
16032;DHT22;8120;48.308;8.914;2022-09-11T02:26:41;12.40;88.90
16032;DHT22;8120;48.308;8.914;2022-09-11T02:29:12;12.40;88.60
16032;DHT22;8120;48.308;8.914;2022-09-11T02:31:41;12.40;89.30
16032;DHT22;8120;48.308;8.914;2022-09-11T02:34:10;12.40;89.80
16032;DHT22;8120;48.308;8.914;2022-09-11T02:36:52;12.40;90.10
16032;DHT22;8120;48.308;8.914;2022-09-11T02:40:22;12.30;89.70
16032;DHT22;8120;48.308;8.914;2022-09-11T02:43:33;12.40;88.60
16032;DHT22;8120;48.308;8.914;2022-09-11T02:50:02;12.40;89.00
16032;DHT22;8120;48.308;8.914;2022-09-11T02:53:03;12.50;88.60
16032;DHT22;8120;48.308;8.914;2022-09-11T02:55:54;12.50;88.50
16032;DHT22;8120;48.308;8.914;2022-09-11T02:58:55;12.50;89.20
16032;DHT22;8120;48.308;8.914;2022-09-11T03:01:50;12.40;89.40
16032;DHT22;8120;48.308;8.914;2022-09-11T03:04:47;12.40;89.10
16032;DHT22;8120;48.308;8.914;2022-09-11T03:21:04;12.50;88.60
16032;DHT22;8120;48.308;8.914;2022-09-11T03:23:52;12.50;89.10
16032;DHT22;8120;48.308;8.914;2022-09-11T03:26:48;12.50;89.10
16032;DHT22;8120;48.308;8.914;2022-09-11T03:29:44;12.40;89.60
16032;DHT22;8120;48.308;8.914;2022-09-11T03:32:26;12.40;90.00
16032;DHT22;8120;48.308;8.914;2022-09-11T03:35:08;12.40;90.10
16032;DHT22;8120;48.308;8.914;2022-09-11T03:48:16;12.40;89.70
16032;DHT22;8120;48.308;8.914;2022-09-11T03:51:13;12.50;90.20
16032;DHT22;8120;48.308;8.914;2022-09-11T03:54:11;12.40;90.70
16032;DHT22;8120;48.308;8.914;2022-09-11T03:56:57;12.40;91.70
16032;DHT22;8120;48.308;8.914;2022-09-11T03:59:43;12.30;92.80
16032;DHT22;8120;48.308;8.914;2022-09-11T04:02:39;12.30;93.90
16032;DHT22;8120;48.308;8.914;2022-09-11T04:05:54;12.20;94.90
16032;DHT22;8120;48.308;8.914;2022-09-11T04:08:51;12.20;95.90
16032;DHT22;8120;48.308;8.914;2022-09-11T04:11:47;12.20;97.30
16032;DHT22;8120;48.308;8.914;2022-09-11T04:14:31;12.10;97.60
16032;DHT22;8120;48.308;8.914;2022-09-11T04:17:28;12.10;98.20
16032;DHT22;8120;48.308;8.914;2022-09-11T04:20:24;12.10;99.00
16032;DHT22;8120;48.308;8.914;2022-09-11T04:26:34;12.10;99.90
16032;DHT22;8120;48.308;8.914;2022-09-11T04:29:31;12.10;99.20
16032;DHT22;8120;48.308;8.914;2022-09-11T04:32:13;12.10;99.80
16032;DHT22;8120;48.308;8.914;2022-09-11T04:35:09;12.10;99.50
16032;DHT22;8120;48.308;8.914;2022-09-11T04:38:06;12.10;99.90
16032;DHT22;8120;48.308;8.914;2022-09-11T04:41:06;12.10;99.90
16032;DHT22;8120;48.308;8.914;2022-09-11T04:44:25;12.10;99.90
16032;DHT22;8120;48.308;8.914;2022-09-11T04:47:22;12.20;99.90
16032;DHT22;8120;48.308;8.914;2022-09-11T04:50:18;12.20;99.60
16032;DHT22;8120;48.308;8.914;2022-09-11T04:53:15;12.20;99.50
16032;DHT22;8120;48.308;8.914;2022-09-11T04:58:53;12.20;99.10
16032;DHT22;8120;48.308;8.914;2022-09-11T05:01:24;12.20;98.90
16032;DHT22;8120;48.308;8.914;2022-09-11T05:03:52;12.20;99.40
16032;DHT22;8120;48.308;8.914;2022-09-11T05:06:22;12.20;99.60
16032;DHT22;8120;48.308;8.914;2022-09-11T05:08:50;12.20;99.90
16032;DHT22;8120;48.308;8.914;2022-09-11T05:11:18;12.20;99.90
16032;DHT22;8120;48.308;8.914;2022-09-11T05:13:47;12.20;99.90
16032;DHT22;8120;48.308;8.914;2022-09-11T05:16:16;12.20;99.90
16032;DHT22;8120;48.308;8.914;2022-09-11T05:18:50;12.20;99.90
16032;DHT22;8120;48.308;8.914;2022-09-11T05:21:19;12.20;99.90
16032;DHT22;8120;48.308;8.914;2022-09-11T05:23:49;12.20;99.90
16032;DHT22;8120;48.308;8.914;2022-09-11T05:26:18;12.20;99.90
16032;DHT22;8120;48.308;8.914;2022-09-11T05:28:46;12.30;99.90
16032;DHT22;8120;48.308;8.914;2022-09-11T05:31:15;12.30;99.90
16032;DHT22;8120;48.308;8.914;2022-09-11T05:33:44;12.20;99.90
16032;DHT22;8120;48.308;8.914;2022-09-11T05:36:14;12.20;99.90
16032;DHT22;8120;48.308;8.914;2022-09-11T05:38:43;12.30;99.90
16032;DHT22;8120;48.308;8.914;2022-09-11T05:41:12;12.30;99.90
16032;DHT22;8120;48.308;8.914;2022-09-11T05:43:41;12.30;99.90
16032;DHT22;8120;48.308;8.914;2022-09-11T05:46:11;12.30;99.90
16032;DHT22;8120;48.308;8.914;2022-09-11T05:48:39;12.40;99.90
16032;DHT22;8120;48.308;8.914;2022-09-11T05:51:10;12.40;99.90
16032;DHT22;8120;48.308;8.914;2022-09-11T05:53:40;12.40;99.90
16032;DHT22;8120;48.308;8.914;2022-09-11T05:56:09;12.50;99.90
16032;DHT22;8120;48.308;8.914;2022-09-11T05:58:38;12.40;99.90
16032;DHT22;8120;48.308;8.914;2022-09-11T06:01:07;12.40;99.90
16032;DHT22;8120;48.308;8.914;2022-09-11T06:03:36;12.40;99.90
16032;DHT22;8120;48.308;8.914;2022-09-11T06:06:06;12.50;99.90
16032;DHT22;8120;48.308;8.914;2022-09-11T06:08:36;12.60;99.90
16032;DHT22;8120;48.308;8.914;2022-09-11T06:11:06;12.70;99.90
16032;DHT22;8120;48.308;8.914;2022-09-11T06:13:37;12.70;99.30
16032;DHT22;8120;48.308;8.914;2022-09-11T06:16:08;12.80;99.90
16032;DHT22;8120;48.308;8.914;2022-09-11T06:18:43;12.80;98.50
16032;DHT22;8120;48.308;8.914;2022-09-11T06:21:15;12.80;97.20
16032;DHT22;8120;48.308;8.914;2022-09-11T06:23:46;12.80;99.10
16032;DHT22;8120;48.308;8.914;2022-09-11T06:26:17;12.90;99.00
16032;DHT22;8120;48.308;8.914;2022-09-11T06:28:46;12.80;98.30
16032;DHT22;8120;48.308;8.914;2022-09-11T06:31:16;12.70;99.40
16032;DHT22;8120;48.308;8.914;2022-09-11T06:33:44;12.70;99.90
16032;DHT22;8120;48.308;8.914;2022-09-11T06:36:14;12.70;99.90
16032;DHT22;8120;48.308;8.914;2022-09-11T06:38:43;12.50;99.90
16032;DHT22;8120;48.308;8.914;2022-09-11T06:41:13;12.40;99.90
16032;DHT22;8120;48.308;8.914;2022-09-11T06:43:43;12.30;99.90
16032;DHT22;8120;48.308;8.914;2022-09-11T06:46:12;12.30;99.90
16032;DHT22;8120;48.308;8.914;2022-09-11T06:48:41;12.40;99.90
16032;DHT22;8120;48.308;8.914;2022-09-11T06:51:11;12.40;99.90
16032;DHT22;8120;48.308;8.914;2022-09-11T06:53:39;12.50;99.90
16032;DHT22;8120;48.308;8.914;2022-09-11T06:56:09;12.60;99.90
16032;DHT22;8120;48.308;8.914;2022-09-11T06:58:38;12.80;99.90
16032;DHT22;8120;48.308;8.914;2022-09-11T07:01:11;12.80;99.90
16032;DHT22;8120;48.308;8.914;2022-09-11T07:03:41;12.90;99.90
16032;DHT22;8120;48.308;8.914;2022-09-11T07:06:11;13.00;99.90
16032;DHT22;8120;48.308;8.914;2022-09-11T07:08:39;12.90;99.90
16032;DHT22;8120;48.308;8.914;2022-09-11T07:11:08;12.80;99.90
16032;DHT22;8120;48.308;8.914;2022-09-11T07:13:37;12.90;99.90
16032;DHT22;8120;48.308;8.914;2022-09-11T07:16:08;12.80;99.90
16032;DHT22;8120;48.308;8.914;2022-09-11T07:18:38;12.80;99.90
16032;DHT22;8120;48.308;8.914;2022-09-11T07:21:07;12.80;99.90
16032;DHT22;8120;48.308;8.914;2022-09-11T07:23:37;12.90;99.90
16032;DHT22;8120;48.308;8.914;2022-09-11T07:26:07;12.90;99.90
16032;DHT22;8120;48.308;8.914;2022-09-11T07:28:35;12.90;99.90
16032;DHT22;8120;48.308;8.914;2022-09-11T07:31:06;12.80;99.90
16032;DHT22;8120;48.308;8.914;2022-09-11T07:33:38;12.90;99.90
16032;DHT22;8120;48.308;8.914;2022-09-11T07:36:07;13.00;99.90
16032;DHT22;8120;48.308;8.914;2022-09-11T07:38:39;13.10;99.90
16032;DHT22;8120;48.308;8.914;2022-09-11T07:41:08;13.00;99.90
16032;DHT22;8120;48.308;8.914;2022-09-11T07:43:37;13.20;99.90
16032;DHT22;8120;48.308;8.914;2022-09-11T07:46:05;13.30;99.90
16032;DHT22;8120;48.308;8.914;2022-09-11T07:48:34;13.30;99.90
16032;DHT22;8120;48.308;8.914;2022-09-11T07:51:05;13.60;99.90
16032;DHT22;8120;48.308;8.914;2022-09-11T07:53:36;13.70;97.80
16032;DHT22;8120;48.308;8.914;2022-09-11T07:56:07;14.00;96.10
16032;DHT22;8120;48.308;8.914;2022-09-11T07:58:36;14.00;96.50
16032;DHT22;8120;48.308;8.914;2022-09-11T08:01:05;14.10;95.10
16032;DHT22;8120;48.308;8.914;2022-09-11T08:03:33;14.00;95.10
16032;DHT22;8120;48.308;8.914;2022-09-11T08:06:05;14.00;95.40
16032;DHT22;8120;48.308;8.914;2022-09-11T08:08:34;14.00;97.00
16032;DHT22;8120;48.308;8.914;2022-09-11T08:11:05;14.30;93.70
16032;DHT22;8120;48.308;8.914;2022-09-11T08:13:34;14.40;91.30
16032;DHT22;8120;48.308;8.914;2022-09-11T08:16:02;14.70;93.30
16032;DHT22;8120;48.308;8.914;2022-09-11T08:18:30;14.90;89.90
16032;DHT22;8120;48.308;8.914;2022-09-11T08:21:03;15.10;86.60
16032;DHT22;8120;48.308;8.914;2022-09-11T08:23:40;14.90;88.70
16032;DHT22;8120;48.308;8.914;2022-09-11T08:26:10;14.80;89.70
16032;DHT22;8120;48.308;8.914;2022-09-11T08:28:39;14.80;88.60
16032;DHT22;8120;48.308;8.914;2022-09-11T08:31:09;14.70;90.30
16032;DHT22;8120;48.308;8.914;2022-09-11T08:33:37;14.80;92.40
16032;DHT22;8120;48.308;8.914;2022-09-11T08:36:09;14.90;91.10
16032;DHT22;8120;48.308;8.914;2022-09-11T08:38:41;15.00;91.40
16032;DHT22;8120;48.308;8.914;2022-09-11T08:41:14;15.20;90.00
16032;DHT22;8120;48.308;8.914;2022-09-11T08:43:48;15.30;88.10
16032;DHT22;8120;48.308;8.914;2022-09-11T08:46:20;15.50;87.30
16032;DHT22;8120;48.308;8.914;2022-09-11T08:49:03;16.00;85.10
16032;DHT22;8120;48.308;8.914;2022-09-11T08:51:34;16.50;85.30
16032;DHT22;8120;48.308;8.914;2022-09-11T08:54:03;17.50;79.60
16032;DHT22;8120;48.308;8.914;2022-09-11T08:56:31;17.40;77.80
16032;DHT22;8120;48.308;8.914;2022-09-11T08:59:16;16.70;79.70
16032;DHT22;8120;48.308;8.914;2022-09-11T09:01:51;16.20;81.00
16032;DHT22;8120;48.308;8.914;2022-09-11T09:04:34;15.90;84.20
16032;DHT22;8120;48.308;8.914;2022-09-11T09:07:27;15.80;84.60
16032;DHT22;8120;48.308;8.914;2022-09-11T09:10:04;15.70;85.50
16032;DHT22;8120;48.308;8.914;2022-09-11T09:12:40;15.70;87.80
16032;DHT22;8120;48.308;8.914;2022-09-11T09:15:23;15.80;84.90
16032;DHT22;8120;48.308;8.914;2022-09-11T09:17:58;16.20;83.10
16032;DHT22;8120;48.308;8.914;2022-09-11T09:20:31;16.60;80.80
16032;DHT22;8120;48.308;8.914;2022-09-11T09:23:05;17.00;77.30
16032;DHT22;8120;48.308;8.914;2022-09-11T09:25:39;16.90;78.20
16032;DHT22;8120;48.308;8.914;2022-09-11T09:28:23;16.80;77.70
16032;DHT22;8120;48.308;8.914;2022-09-11T09:30:54;16.70;76.50
16032;DHT22;8120;48.308;8.914;2022-09-11T09:33:28;16.40;78.80
16032;DHT22;8120;48.308;8.914;2022-09-11T09:36:09;16.10;80.80
16032;DHT22;8120;48.308;8.914;2022-09-11T09:38:41;15.90;78.70
16032;DHT22;8120;48.308;8.914;2022-09-11T09:44:06;16.50;77.60
16032;DHT22;8120;48.308;8.914;2022-09-11T09:46:46;17.20;74.90
16032;DHT22;8120;48.308;8.914;2022-09-11T09:49:19;18.10;73.10
16032;DHT22;8120;48.308;8.914;2022-09-11T09:51:49;18.30;68.90
16032;DHT22;8120;48.308;8.914;2022-09-11T09:54:20;18.80;71.10
16032;DHT22;8120;48.308;8.914;2022-09-11T09:56:56;18.20;72.70
16032;DHT22;8120;48.308;8.914;2022-09-11T09:59:29;18.30;70.10
16032;DHT22;8120;48.308;8.914;2022-09-11T10:01:58;18.00;70.80
16032;DHT22;8120;48.308;8.914;2022-09-11T10:04:27;17.80;70.70
16032;DHT22;8120;48.308;8.914;2022-09-11T10:07:05;17.50;72.30
16032;DHT22;8120;48.308;8.914;2022-09-11T10:09:44;18.20;68.40
16032;DHT22;8120;48.308;8.914;2022-09-11T10:12:16;19.10;64.10
16032;DHT22;8120;48.308;8.914;2022-09-11T10:14:50;19.20;64.40
16032;DHT22;8120;48.308;8.914;2022-09-11T10:17:20;18.90;64.10
16032;DHT22;8120;48.308;8.914;2022-09-11T10:19:49;18.00;68.20
16032;DHT22;8120;48.308;8.914;2022-09-11T10:22:25;17.30;71.20
16032;DHT22;8120;48.308;8.914;2022-09-11T10:25:08;17.00;71.60
16032;DHT22;8120;48.308;8.914;2022-09-11T10:27:45;17.10;73.10
16032;DHT22;8120;48.308;8.914;2022-09-11T10:30:26;17.40;71.90
16032;DHT22;8120;48.308;8.914;2022-09-11T10:32:55;17.70;70.20
16032;DHT22;8120;48.308;8.914;2022-09-11T10:35:30;17.60;69.20
16032;DHT22;8120;48.308;8.914;2022-09-11T10:38:12;17.70;69.10
16032;DHT22;8120;48.308;8.914;2022-09-11T10:41:00;18.20;68.90
16032;DHT22;8120;48.308;8.914;2022-09-11T10:43:35;18.80;65.50
16032;DHT22;8120;48.308;8.914;2022-09-11T10:46:18;19.20;63.50
16032;DHT22;8120;48.308;8.914;2022-09-11T10:48:52;19.50;61.90
16032;DHT22;8120;48.308;8.914;2022-09-11T10:51:21;19.60;63.20
16032;DHT22;8120;48.308;8.914;2022-09-11T10:53:58;20.10;63.70
16032;DHT22;8120;48.308;8.914;2022-09-11T10:56:32;20.20;60.60
16032;DHT22;8120;48.308;8.914;2022-09-11T10:59:05;19.80;60.90
16032;DHT22;8120;48.308;8.914;2022-09-11T11:01:38;19.60;64.00
16032;DHT22;8120;48.308;8.914;2022-09-11T11:04:08;20.20;59.70
16032;DHT22;8120;48.308;8.914;2022-09-11T11:06:51;20.20;60.10
16032;DHT22;8120;48.308;8.914;2022-09-11T11:09:33;19.50;62.20
16032;DHT22;8120;48.308;8.914;2022-09-11T11:12:20;18.90;64.30
16032;DHT22;8120;48.308;8.914;2022-09-11T11:15:22;19.40;61.70
16032;DHT22;8120;48.308;8.914;2022-09-11T11:21:07;20.40;60.30
16032;DHT22;8120;48.308;8.914;2022-09-11T11:23:49;20.40;59.20
16032;DHT22;8120;48.308;8.914;2022-09-11T11:26:31;20.60;56.00
16032;DHT22;8120;48.308;8.914;2022-09-11T11:29:26;20.80;57.60
16032;DHT22;8120;48.308;8.914;2022-09-11T11:32:11;20.70;56.50
16032;DHT22;8120;48.308;8.914;2022-09-11T11:35:01;20.40;56.70
16032;DHT22;8120;48.308;8.914;2022-09-11T11:37:37;20.60;55.80
16032;DHT22;8120;48.308;8.914;2022-09-11T11:40:14;20.40;56.90
16032;DHT22;8120;48.308;8.914;2022-09-11T11:42:47;20.50;55.80
16032;DHT22;8120;48.308;8.914;2022-09-11T11:45:26;20.70;55.50
16032;DHT22;8120;48.308;8.914;2022-09-11T11:47:58;20.30;55.50
16032;DHT22;8120;48.308;8.914;2022-09-11T11:50:36;20.50;56.40
16032;DHT22;8120;48.308;8.914;2022-09-11T11:53:10;20.50;55.60
16032;DHT22;8120;48.308;8.914;2022-09-11T11:55:47;20.60;53.90
16032;DHT22;8120;48.308;8.914;2022-09-11T11:58:21;20.30;55.10
16032;DHT22;8120;48.308;8.914;2022-09-11T12:00:56;20.40;56.30
16032;DHT22;8120;48.308;8.914;2022-09-11T12:03:28;20.30;56.50
16032;DHT22;8120;48.308;8.914;2022-09-11T12:05:59;19.80;56.90
16032;DHT22;8120;48.308;8.914;2022-09-11T12:08:28;19.30;59.70
16032;DHT22;8120;48.308;8.914;2022-09-11T12:10:58;19.40;59.70
16032;DHT22;8120;48.308;8.914;2022-09-11T12:13:29;19.20;58.10
16032;DHT22;8120;48.308;8.914;2022-09-11T12:16:09;19.30;58.70
16032;DHT22;8120;48.308;8.914;2022-09-11T12:18:37;19.00;59.50
16032;DHT22;8120;48.308;8.914;2022-09-11T12:21:37;18.90;58.70
16032;DHT22;8120;48.308;8.914;2022-09-11T12:24:11;18.80;59.00
16032;DHT22;8120;48.308;8.914;2022-09-11T12:26:41;19.20;57.90
16032;DHT22;8120;48.308;8.914;2022-09-11T12:32:24;19.60;56.10
16032;DHT22;8120;48.308;8.914;2022-09-11T12:37:38;19.80;56.00
16032;DHT22;8120;48.308;8.914;2022-09-11T12:40:14;20.10;55.30
16032;DHT22;8120;48.308;8.914;2022-09-11T12:42:52;20.30;53.70
16032;DHT22;8120;48.308;8.914;2022-09-11T12:45:33;20.30;56.00
16032;DHT22;8120;48.308;8.914;2022-09-11T12:48:11;20.60;52.90
16032;DHT22;8120;48.308;8.914;2022-09-11T12:50:48;20.30;52.70
16032;DHT22;8120;48.308;8.914;2022-09-11T12:53:20;19.90;56.00
16032;DHT22;8120;48.308;8.914;2022-09-11T12:55:59;20.30;55.30
16032;DHT22;8120;48.308;8.914;2022-09-11T12:58:33;20.90;54.70
16032;DHT22;8120;48.308;8.914;2022-09-11T13:01:13;21.30;54.00
16032;DHT22;8120;48.308;8.914;2022-09-11T13:03:53;21.60;50.90
16032;DHT22;8120;48.308;8.914;2022-09-11T13:06:24;21.70;51.80
16032;DHT22;8120;48.308;8.914;2022-09-11T13:09:03;21.00;52.70
16032;DHT22;8120;48.308;8.914;2022-09-11T13:11:40;20.60;54.00
16032;DHT22;8120;48.308;8.914;2022-09-11T13:14:43;20.00;53.40
16032;DHT22;8120;48.308;8.914;2022-09-11T13:17:23;19.90;53.60
16032;DHT22;8120;48.308;8.914;2022-09-11T13:19:56;20.00;54.20
16032;DHT22;8120;48.308;8.914;2022-09-11T13:22:36;20.10;55.40
16032;DHT22;8120;48.308;8.914;2022-09-11T13:25:08;20.10;54.90
16032;DHT22;8120;48.308;8.914;2022-09-11T13:27:39;20.50;56.20
16032;DHT22;8120;48.308;8.914;2022-09-11T13:30:11;20.80;55.00
16032;DHT22;8120;48.308;8.914;2022-09-11T13:32:40;20.60;55.50
16032;DHT22;8120;48.308;8.914;2022-09-11T13:35:13;20.50;54.50
16032;DHT22;8120;48.308;8.914;2022-09-11T13:37:44;20.70;56.10
16032;DHT22;8120;48.308;8.914;2022-09-11T13:40:18;20.10;57.10
16032;DHT22;8120;48.308;8.914;2022-09-11T13:42:48;20.20;56.90
16032;DHT22;8120;48.308;8.914;2022-09-11T13:45:17;20.60;57.20
16032;DHT22;8120;48.308;8.914;2022-09-11T13:47:48;20.70;55.30
16032;DHT22;8120;48.308;8.914;2022-09-11T13:50:17;20.80;54.00
16032;DHT22;8120;48.308;8.914;2022-09-11T13:52:46;20.60;53.90
16032;DHT22;8120;48.308;8.914;2022-09-11T13:55:16;20.20;54.10
16032;DHT22;8120;48.308;8.914;2022-09-11T13:57:50;20.40;55.10
16032;DHT22;8120;48.308;8.914;2022-09-11T14:00:39;20.60;54.60
16032;DHT22;8120;48.308;8.914;2022-09-11T14:03:19;20.90;54.00
16032;DHT22;8120;48.308;8.914;2022-09-11T14:05:51;21.00;53.00
16032;DHT22;8120;48.308;8.914;2022-09-11T14:08:29;21.20;53.60
16032;DHT22;8120;48.308;8.914;2022-09-11T14:11:00;21.50;52.10
16032;DHT22;8120;48.308;8.914;2022-09-11T14:13:31;21.40;52.20
16032;DHT22;8120;48.308;8.914;2022-09-11T14:16:03;21.20;52.00
16032;DHT22;8120;48.308;8.914;2022-09-11T14:18:35;21.20;52.30
16032;DHT22;8120;48.308;8.914;2022-09-11T14:21:13;21.40;50.50
16032;DHT22;8120;48.308;8.914;2022-09-11T14:23:44;21.70;51.20
16032;DHT22;8120;48.308;8.914;2022-09-11T14:26:16;21.60;49.10
16032;DHT22;8120;48.308;8.914;2022-09-11T14:29:00;21.20;47.00
16032;DHT22;8120;48.308;8.914;2022-09-11T14:31:34;21.20;47.70
16032;DHT22;8120;48.308;8.914;2022-09-11T14:34:14;21.80;48.20
16032;DHT22;8120;48.308;8.914;2022-09-11T14:36:46;21.90;47.20
16032;DHT22;8120;48.308;8.914;2022-09-11T14:39:22;21.00;47.20
16032;DHT22;8120;48.308;8.914;2022-09-11T14:41:51;20.80;48.70
16032;DHT22;8120;48.308;8.914;2022-09-11T14:44:21;21.20;49.20
16032;DHT22;8120;48.308;8.914;2022-09-11T14:46:50;21.70;47.60
16032;DHT22;8120;48.308;8.914;2022-09-11T14:49:18;21.60;47.50
16032;DHT22;8120;48.308;8.914;2022-09-11T14:51:52;21.60;47.10
16032;DHT22;8120;48.308;8.914;2022-09-11T14:54:21;21.50;45.30
16032;DHT22;8120;48.308;8.914;2022-09-11T14:56:49;21.80;46.50
16032;DHT22;8120;48.308;8.914;2022-09-11T14:59:18;21.90;46.00
16032;DHT22;8120;48.308;8.914;2022-09-11T15:01:46;21.70;45.90
16032;DHT22;8120;48.308;8.914;2022-09-11T15:04:19;21.70;47.20
16032;DHT22;8120;48.308;8.914;2022-09-11T15:06:50;21.70;46.20
16032;DHT22;8120;48.308;8.914;2022-09-11T15:09:18;21.70;46.70
16032;DHT22;8120;48.308;8.914;2022-09-11T15:11:46;21.90;47.10
16032;DHT22;8120;48.308;8.914;2022-09-11T15:14:15;22.20;45.40
16032;DHT22;8120;48.308;8.914;2022-09-11T15:17:05;21.90;45.90
16032;DHT22;8120;48.308;8.914;2022-09-11T15:19:33;21.50;46.90
16032;DHT22;8120;48.308;8.914;2022-09-11T15:22:04;21.30;47.40
16032;DHT22;8120;48.308;8.914;2022-09-11T15:24:33;21.60;48.80
16032;DHT22;8120;48.308;8.914;2022-09-11T15:27:01;21.50;47.80
16032;DHT22;8120;48.308;8.914;2022-09-11T15:29:29;21.50;49.40
16032;DHT22;8120;48.308;8.914;2022-09-11T15:31:57;21.40;50.80
16032;DHT22;8120;48.308;8.914;2022-09-11T15:34:27;20.80;53.00
16032;DHT22;8120;48.308;8.914;2022-09-11T15:36:57;20.30;54.60
16032;DHT22;8120;48.308;8.914;2022-09-11T15:39:27;20.00;55.30
16032;DHT22;8120;48.308;8.914;2022-09-11T15:41:56;19.80;56.30
16032;DHT22;8120;48.308;8.914;2022-09-11T15:44:26;19.70;56.10
16032;DHT22;8120;48.308;8.914;2022-09-11T15:46:56;19.80;56.10
16032;DHT22;8120;48.308;8.914;2022-09-11T15:49:24;19.80;56.00
16032;DHT22;8120;48.308;8.914;2022-09-11T15:51:53;19.80;55.60
16032;DHT22;8120;48.308;8.914;2022-09-11T15:54:22;19.80;56.20
16032;DHT22;8120;48.308;8.914;2022-09-11T15:56:51;19.80;55.30
16032;DHT22;8120;48.308;8.914;2022-09-11T15:59:19;19.60;56.20
16032;DHT22;8120;48.308;8.914;2022-09-11T16:01:47;19.50;56.60
16032;DHT22;8120;48.308;8.914;2022-09-11T16:04:18;19.50;56.80
16032;DHT22;8120;48.308;8.914;2022-09-11T16:06:49;19.40;57.00
16032;DHT22;8120;48.308;8.914;2022-09-11T16:09:19;19.30;56.80
16032;DHT22;8120;48.308;8.914;2022-09-11T16:11:48;19.10;58.50
16032;DHT22;8120;48.308;8.914;2022-09-11T16:14:19;19.00;58.60
16032;DHT22;8120;48.308;8.914;2022-09-11T16:16:49;19.00;59.20
16032;DHT22;8120;48.308;8.914;2022-09-11T16:19:19;18.90;59.70
16032;DHT22;8120;48.308;8.914;2022-09-11T16:21:48;18.90;59.50
16032;DHT22;8120;48.308;8.914;2022-09-11T16:24:18;18.70;60.20
16032;DHT22;8120;48.308;8.914;2022-09-11T16:26:46;18.70;60.60
16032;DHT22;8120;48.308;8.914;2022-09-11T16:29:14;18.60;61.00
16032;DHT22;8120;48.308;8.914;2022-09-11T16:31:45;18.60;62.10
16032;DHT22;8120;48.308;8.914;2022-09-11T16:34:12;18.50;62.20
16032;DHT22;8120;48.308;8.914;2022-09-11T16:36:41;18.50;62.50
16032;DHT22;8120;48.308;8.914;2022-09-11T16:39:11;18.40;62.60
16032;DHT22;8120;48.308;8.914;2022-09-11T16:41:39;18.40;62.70
16032;DHT22;8120;48.308;8.914;2022-09-11T16:44:11;18.30;62.60
16032;DHT22;8120;48.308;8.914;2022-09-11T16:46:39;18.20;61.30
16032;DHT22;8120;48.308;8.914;2022-09-11T16:49:13;18.10;61.90
16032;DHT22;8120;48.308;8.914;2022-09-11T16:51:43;18.10;62.70
16032;DHT22;8120;48.308;8.914;2022-09-11T16:54:11;18.00;63.00
16032;DHT22;8120;48.308;8.914;2022-09-11T16:56:39;18.00;63.30
16032;DHT22;8120;48.308;8.914;2022-09-11T16:59:11;17.90;63.70
16032;DHT22;8120;48.308;8.914;2022-09-11T17:01:39;17.90;61.70
16032;DHT22;8120;48.308;8.914;2022-09-11T17:04:08;17.90;62.10
16032;DHT22;8120;48.308;8.914;2022-09-11T17:06:36;17.80;62.50
16032;DHT22;8120;48.308;8.914;2022-09-11T17:09:04;17.70;62.60
16032;DHT22;8120;48.308;8.914;2022-09-11T17:11:32;17.70;63.80
16032;DHT22;8120;48.308;8.914;2022-09-11T17:14:02;17.70;64.00
16032;DHT22;8120;48.308;8.914;2022-09-11T17:16:31;17.70;64.50
16032;DHT22;8120;48.308;8.914;2022-09-11T17:19:01;17.60;64.70